LGA weather

La Guardia Airport
New York, New York, United States

Public forecast

Using degrees Fahrenheit for public forecast. Weather courtesy of forecast.io.

METAR (pilot weather report)

Retrieved 2017/10/19 05:51 UTC (32 minutes ago):

KLGA 190551Z 23007KT 10SM CLR 17/08 A3026 RMK AO2 SLP247 T01670078 10183 20161 58006

TAF (pilot weather forecast)

Retrieved 2017/10/19 06:42 UTC (0 seconds ago):

TAF KLGA 190541Z 1906/2006 VRB04KT P6SM SKC FM191400 22008KT P6SM FEW250 FM191800 21010G18KT P6SM FEW250 FM200000 23009KT P6SM FEW250 FM200400 25007KT P6SM SKC